createdAt,value
2017-09-13T00:01:26.979Z,11.00
2017-09-13T00:03:54.612Z,10.90
2017-09-13T00:06:22.245Z,11.00
2017-09-13T00:08:50.676Z,11.00
2017-09-13T00:11:18.283Z,11.00
2017-09-13T00:13:46.747Z,11.10
2017-09-13T00:16:15.221Z,11.10
2017-09-13T00:18:42.896Z,11.10
2017-09-13T00:21:10.731Z,11.00
2017-09-13T00:23:38.439Z,11.00
2017-09-13T00:26:06.075Z,11.00
2017-09-13T00:28:34.487Z,10.90
2017-09-13T00:31:02.189Z,10.80
2017-09-13T00:33:29.850Z,10.80
2017-09-13T00:35:57.481Z,10.70
2017-09-13T00:38:25.207Z,10.70
2017-09-13T00:40:53.605Z,10.50
2017-09-13T00:43:21.319Z,10.50
2017-09-13T00:45:48.983Z,10.50
2017-09-13T00:48:16.694Z,10.40
2017-09-13T00:50:44.414Z,10.30
2017-09-13T00:53:12.972Z,10.30
2017-09-13T00:55:40.600Z,10.20
2017-09-13T00:58:08.285Z,10.20
2017-09-13T01:00:36.345Z,10.20
2017-09-13T01:03:04.994Z,10.10
2017-09-13T01:05:32.630Z,10.30
2017-09-13T01:08:01.123Z,10.40
2017-09-13T01:10:29.622Z,10.40
2017-09-13T01:12:57.241Z,10.40
2017-09-13T01:15:24.920Z,10.30
2017-09-13T01:17:53.293Z,10.30
2017-09-13T01:20:21.746Z,10.30
2017-09-13T01:22:49.408Z,10.20
2017-09-13T01:25:17.033Z,10.30
2017-09-13T01:27:44.685Z,10.30
2017-09-13T01:30:12.408Z,10.30
2017-09-13T01:32:40.043Z,10.30
2017-09-13T01:35:07.720Z,10.30
2017-09-13T01:37:37.006Z,10.40
2017-09-13T01:40:04.669Z,10.40
2017-09-13T01:42:32.311Z,10.30
2017-09-13T01:44:59.988Z,10.30
2017-09-13T01:47:27.649Z,10.20
2017-09-13T01:49:55.280Z,10.20
2017-09-13T01:52:23.074Z,10.20
2017-09-13T01:54:51.477Z,10.10
2017-09-13T01:57:19.871Z,10.00
2017-09-13T01:59:47.564Z,10.00
2017-09-13T02:02:15.172Z,10.00
2017-09-13T02:04:43.576Z,9.90
2017-09-13T02:07:11.269Z,9.90
2017-09-13T02:09:38.906Z,9.90
2017-09-13T02:12:06.543Z,9.90
2017-09-13T02:14:34.204Z,9.90
2017-09-13T02:17:01.874Z,9.90
2017-09-13T02:19:29.499Z,9.90
2017-09-13T02:21:58.110Z,9.80
2017-09-13T02:24:25.720Z,9.80
2017-09-13T02:26:53.351Z,9.80
2017-09-13T02:29:21.036Z,9.80
2017-09-13T02:31:48.719Z,9.80
2017-09-13T02:34:16.339Z,9.80
2017-09-13T02:36:44.028Z,9.70
2017-09-13T02:39:11.664Z,9.70
2017-09-13T02:41:39.333Z,9.70
2017-09-13T02:44:07.028Z,9.70
2017-09-13T02:46:34.650Z,9.60
2017-09-13T02:49:02.299Z,9.50
2017-09-13T02:51:29.972Z,9.50
2017-09-13T02:53:58.439Z,9.40
2017-09-13T02:56:26.069Z,9.40
2017-09-13T02:58:53.812Z,9.30
2017-09-13T03:01:22.244Z,9.20
2017-09-13T03:03:49.932Z,9.20
2017-09-13T03:06:17.799Z,9.20
2017-09-13T03:08:46.058Z,9.10
2017-09-13T03:11:13.700Z,9.10
2017-09-13T03:13:41.512Z,9.00
2017-09-13T03:16:09.895Z,9.10
2017-09-13T03:18:37.589Z,9.00
2017-09-13T03:21:05.292Z,9.10
2017-09-13T03:23:32.969Z,9.00
2017-09-13T03:26:01.348Z,9.00
2017-09-13T03:28:29.821Z,9.00
2017-09-13T03:30:58.305Z,9.00
2017-09-13T03:33:26.728Z,9.10
2017-09-13T03:35:54.544Z,9.00
2017-09-13T03:38:22.941Z,9.10
2017-09-13T03:40:50.589Z,9.10
2017-09-13T03:43:19.055Z,9.10
2017-09-13T03:45:46.732Z,9.00
2017-09-13T03:48:15.140Z,9.10
2017-09-13T03:50:42.825Z,9.10
2017-09-13T03:53:10.436Z,9.20
2017-09-13T03:55:38.828Z,9.20
2017-09-13T03:58:06.509Z,9.10
2017-09-13T04:00:34.168Z,9.10
2017-09-13T04:03:01.793Z,9.10
2017-09-13T04:05:29.490Z,9.10
2017-09-13T04:07:57.204Z,9.10
2017-09-13T04:10:25.757Z,9.00
2017-09-13T04:12:53.436Z,9.00
2017-09-13T04:15:21.841Z,8.90
2017-09-13T04:17:49.465Z,8.90
2017-09-13T04:20:17.201Z,8.90
2017-09-13T04:22:44.821Z,8.90
2017-09-13T04:25:12.502Z,8.80
2017-09-13T04:27:40.168Z,8.80
2017-09-13T04:30:07.791Z,8.70
2017-09-13T04:32:36.176Z,8.50
2017-09-13T04:35:03.861Z,8.50
2017-09-13T04:37:31.507Z,8.50
2017-09-13T04:39:59.128Z,8.50
2017-09-13T04:42:26.843Z,8.40
2017-09-13T04:44:54.451Z,8.40
2017-09-13T04:47:22.100Z,8.40
2017-09-13T04:49:49.764Z,8.40
2017-09-13T04:52:17.472Z,8.50
2017-09-13T04:54:45.094Z,8.50
2017-09-13T04:57:13.559Z,8.60
2017-09-13T04:59:41.172Z,8.60
2017-09-13T05:02:08.801Z,8.60
2017-09-13T05:04:37.283Z,8.60
2017-09-13T05:07:05.653Z,8.70
2017-09-13T05:09:34.057Z,8.70
2017-09-13T05:12:01.713Z,8.70
2017-09-13T05:14:30.148Z,8.80
2017-09-13T05:16:57.807Z,8.80
2017-09-13T05:19:25.487Z,8.80
2017-09-13T05:21:53.918Z,8.70
2017-09-13T05:24:21.568Z,8.70
2017-09-13T05:26:49.236Z,8.70
2017-09-13T05:29:16.873Z,8.70
2017-09-13T05:31:44.579Z,8.70
2017-09-13T05:34:12.277Z,8.70
2017-09-13T05:36:40.717Z,8.60
2017-09-13T05:39:08.363Z,8.60
2017-09-13T05:41:36.107Z,8.60
2017-09-13T05:44:03.725Z,8.60
2017-09-13T05:46:32.140Z,8.70
2017-09-13T05:48:59.814Z,8.70
2017-09-13T05:51:27.530Z,8.80
2017-09-13T05:53:55.959Z,9.00
2017-09-13T05:56:23.685Z,9.00
2017-09-13T05:58:51.312Z,9.20
2017-09-13T06:01:18.941Z,9.50
2017-09-13T06:03:46.609Z,9.80
2017-09-13T06:06:14.287Z,10.10
2017-09-13T06:08:41.945Z,10.30
2017-09-13T06:11:09.620Z,10.50
2017-09-13T06:13:37.285Z,10.60
2017-09-13T06:16:05.675Z,10.70
2017-09-13T06:18:34.126Z,10.70
2017-09-13T06:21:01.782Z,10.70
2017-09-13T06:23:29.462Z,10.70
2017-09-13T06:25:57.143Z,10.70
2017-09-13T06:28:25.514Z,10.80
2017-09-13T06:30:53.911Z,10.80
2017-09-13T06:33:21.922Z,10.80
2017-09-13T06:35:49.604Z,10.90
2017-09-13T06:38:17.253Z,11.00
2017-09-13T06:40:44.939Z,11.10
2017-09-13T06:43:12.608Z,11.10
2017-09-13T06:45:41.100Z,11.20
2017-09-13T06:48:09.085Z,11.20
2017-09-13T06:50:36.721Z,11.30
2017-09-13T06:53:04.396Z,11.50
2017-09-13T06:55:32.059Z,11.50
2017-09-13T06:57:59.735Z,11.60
2017-09-13T07:00:27.399Z,11.70
2017-09-13T07:02:55.425Z,11.70
2017-09-13T07:05:23.812Z,11.90
2017-09-13T07:07:51.471Z,11.90
2017-09-13T07:10:19.196Z,12.00
2017-09-13T07:12:46.881Z,12.00
2017-09-13T07:15:15.391Z,12.20
2017-09-13T07:17:43.114Z,12.20
2017-09-13T07:20:11.492Z,12.40
2017-09-13T07:22:39.876Z,12.50
2017-09-13T07:25:08.378Z,12.60
2017-09-13T07:27:36.017Z,12.60
2017-09-13T07:30:04.451Z,12.90
2017-09-13T07:32:32.119Z,12.90
2017-09-13T07:34:59.819Z,13.00
2017-09-13T07:37:28.204Z,13.20
2017-09-13T07:39:56.254Z,13.20
2017-09-13T07:42:24.681Z,13.50
2017-09-13T07:44:52.297Z,13.50
2017-09-13T07:47:20.763Z,13.60
2017-09-13T07:49:48.432Z,13.60
2017-09-13T07:52:16.818Z,13.60
2017-09-13T07:54:44.500Z,13.60
2017-09-13T07:57:12.134Z,13.60
2017-09-13T07:59:40.570Z,13.50
2017-09-13T08:02:08.249Z,13.50
2017-09-13T08:04:35.909Z,13.40
2017-09-13T08:07:03.554Z,13.50
2017-09-13T08:09:31.301Z,13.50
2017-09-13T08:11:58.945Z,13.50
2017-09-13T08:14:26.628Z,13.50
2017-09-13T08:16:54.312Z,13.50
2017-09-13T08:19:21.973Z,13.50
2017-09-13T08:21:49.732Z,13.50
2017-09-13T08:24:17.419Z,13.60
2017-09-13T08:26:45.871Z,13.70
2017-09-13T08:29:13.512Z,13.60
2017-09-13T08:31:41.207Z,13.70
2017-09-13T08:34:08.862Z,13.90
2017-09-13T08:36:36.546Z,14.10
2017-09-13T08:39:05.083Z,14.10
2017-09-13T08:41:32.740Z,14.10
2017-09-13T08:44:00.368Z,14.10
2017-09-13T08:46:28.051Z,14.10
2017-09-13T08:48:55.717Z,14.10
2017-09-13T08:51:23.404Z,14.10
2017-09-13T08:53:51.085Z,14.10
2017-09-13T08:56:19.564Z,14.10
2017-09-13T08:58:48.048Z,14.10
2017-09-13T09:01:15.836Z,14.10
2017-09-13T09:03:43.492Z,14.10
2017-09-13T09:06:11.205Z,14.10
2017-09-13T09:08:38.880Z,14.10
2017-09-13T09:11:07.289Z,14.00
2017-09-13T09:13:34.920Z,14.00
2017-09-13T09:16:03.437Z,14.10
2017-09-13T09:18:31.052Z,14.10
2017-09-13T09:20:58.705Z,14.20
2017-09-13T09:23:26.496Z,14.30
2017-09-13T09:25:54.912Z,14.50
2017-09-13T09:28:22.529Z,14.50
2017-09-13T09:30:50.964Z,14.70
2017-09-13T09:33:18.583Z,14.70
2017-09-13T09:35:46.229Z,14.80
2017-09-13T09:38:13.921Z,14.90
2017-09-13T09:40:41.578Z,14.90
2017-09-13T09:43:09.196Z,15.00
2017-09-13T09:45:37.816Z,15.10
2017-09-13T09:48:05.564Z,15.00
2017-09-13T09:50:33.236Z,15.10
2017-09-13T09:53:00.929Z,15.10
2017-09-13T09:55:28.568Z,15.10
2017-09-13T09:57:56.220Z,15.10
2017-09-13T10:00:24.723Z,15.20
2017-09-13T10:02:52.341Z,15.20
2017-09-13T10:05:19.962Z,15.30
2017-09-13T10:07:47.704Z,15.40
2017-09-13T10:10:15.388Z,15.40
2017-09-13T10:12:43.053Z,15.60
2017-09-13T10:15:10.867Z,15.70
2017-09-13T10:17:38.484Z,15.80
2017-09-13T10:20:06.863Z,16.20
2017-09-13T10:22:35.379Z,16.40
2017-09-13T10:25:03.033Z,16.30
2017-09-13T10:27:30.675Z,16.50
2017-09-13T10:29:58.489Z,16.60
2017-09-13T10:32:26.146Z,16.60
2017-09-13T10:34:53.771Z,16.50
2017-09-13T10:37:21.616Z,16.20
2017-09-13T10:39:50.105Z,15.50
2017-09-13T10:42:18.562Z,15.30
2017-09-13T10:44:46.235Z,15.30
2017-09-13T10:47:14.647Z,15.10
2017-09-13T10:49:42.273Z,15.10
2017-09-13T10:52:10.808Z,14.90
2017-09-13T10:54:38.431Z,14.90
2017-09-13T10:57:06.069Z,14.80
2017-09-13T10:59:34.579Z,14.80
2017-09-13T11:02:02.232Z,14.70
2017-09-13T11:04:29.860Z,14.90
2017-09-13T11:06:57.582Z,15.00
2017-09-13T11:09:25.252Z,15.10
2017-09-13T11:11:53.015Z,15.20
2017-09-13T11:14:20.839Z,15.30
2017-09-13T11:16:48.528Z,15.50
2017-09-13T11:19:16.161Z,15.70
2017-09-13T11:21:44.021Z,15.80
2017-09-13T11:24:11.639Z,16.00
2017-09-13T11:26:39.294Z,16.10
2017-09-13T11:29:07.145Z,16.20
2017-09-13T11:31:34.847Z,16.40
2017-09-13T11:34:03.238Z,16.70
2017-09-13T11:36:31.719Z,16.80
2017-09-13T11:39:00.151Z,16.90
2017-09-13T11:41:27.804Z,16.80
2017-09-13T11:43:55.808Z,17.00
2017-09-13T11:46:24.223Z,17.30
2017-09-13T11:48:51.887Z,17.30
2017-09-13T11:51:19.680Z,17.50
2017-09-13T11:53:47.356Z,17.50
2017-09-13T11:56:16.003Z,17.60
2017-09-13T11:58:43.669Z,17.70
2017-09-13T12:01:11.291Z,17.70
2017-09-13T12:03:39.764Z,17.90
2017-09-13T12:06:08.301Z,18.00
2017-09-13T12:08:35.972Z,18.00
2017-09-13T12:11:03.631Z,18.20
2017-09-13T12:13:31.308Z,18.20
2017-09-13T12:15:59.698Z,18.50
2017-09-13T12:18:28.077Z,18.70
2017-09-13T12:20:56.640Z,18.80
2017-09-13T12:23:24.316Z,18.80
2017-09-13T12:25:52.694Z,19.00
2017-09-13T12:28:21.144Z,19.10
2017-09-13T12:30:48.766Z,19.10
2017-09-13T12:33:16.506Z,19.10
2017-09-13T12:35:45.037Z,19.10
2017-09-13T12:38:12.660Z,19.10
2017-09-13T12:40:40.323Z,19.20
2017-09-13T12:43:08.117Z,19.20
2017-09-13T12:45:35.752Z,19.10
2017-09-13T12:48:03.507Z,19.20
2017-09-13T12:50:31.169Z,19.10
2017-09-13T12:52:58.865Z,19.10
2017-09-13T12:55:27.196Z,19.20
2017-09-13T12:57:54.912Z,19.20
2017-09-13T13:00:22.546Z,19.10
2017-09-13T13:02:50.163Z,19.10
2017-09-13T13:05:18.587Z,18.90
2017-09-13T13:07:46.208Z,18.90
2017-09-13T13:10:13.860Z,18.80
2017-09-13T13:12:42.396Z,18.70
2017-09-13T13:15:10.022Z,18.70
2017-09-13T13:17:37.637Z,18.70
2017-09-13T13:20:05.356Z,18.70
2017-09-13T13:22:32.994Z,18.60
2017-09-13T13:25:00.627Z,18.60
2017-09-13T13:27:29.047Z,18.60
2017-09-13T13:29:56.675Z,18.50
2017-09-13T13:32:25.056Z,18.60
2017-09-13T13:34:53.541Z,18.60
2017-09-13T13:37:21.182Z,18.60
2017-09-13T13:39:49.573Z,18.40
2017-09-13T13:42:18.130Z,18.40
2017-09-13T13:44:45.743Z,18.40
2017-09-13T13:47:13.417Z,18.20
2017-09-13T13:49:41.095Z,18.00
2017-09-13T13:52:09.708Z,17.90
2017-09-13T13:54:38.102Z,17.60
2017-09-13T13:57:05.820Z,17.60
2017-09-13T13:59:33.440Z,17.70
2017-09-13T14:02:01.117Z,17.70
2017-09-13T14:04:28.781Z,17.70
2017-09-13T14:06:56.407Z,17.80
2017-09-13T14:09:24.116Z,17.80
2017-09-13T14:11:51.798Z,18.00
2017-09-13T14:14:19.448Z,17.90
2017-09-13T14:16:47.070Z,18.00
2017-09-13T14:19:14.781Z,18.00
2017-09-13T14:21:42.525Z,18.10
2017-09-13T14:24:10.255Z,18.10
2017-09-13T14:26:37.908Z,18.20
2017-09-13T14:29:05.580Z,18.20
2017-09-13T14:31:33.180Z,18.30
2017-09-13T14:34:00.842Z,18.30
2017-09-13T14:36:28.512Z,18.20
2017-09-13T14:38:56.953Z,18.00
2017-09-13T14:41:24.611Z,18.00
2017-09-13T14:43:52.262Z,18.00
2017-09-13T14:46:19.925Z,17.90
2017-09-13T14:48:47.577Z,17.80
2017-09-13T14:51:15.217Z,17.70
2017-09-13T14:53:42.823Z,17.60
2017-09-13T14:56:10.546Z,17.50
2017-09-13T14:58:38.200Z,17.50
2017-09-13T15:01:05.887Z,17.40
2017-09-13T15:03:33.646Z,17.40
2017-09-13T15:06:01.258Z,17.30
2017-09-13T15:08:29.668Z,17.30
2017-09-13T15:10:57.414Z,17.30
2017-09-13T15:13:25.075Z,17.40
2017-09-13T15:15:52.717Z,17.50
2017-09-13T15:18:20.513Z,17.60
2017-09-13T15:20:48.168Z,17.80
2017-09-13T15:23:15.793Z,17.80
2017-09-13T15:25:43.489Z,17.90
2017-09-13T15:28:11.152Z,17.90
2017-09-13T15:30:38.785Z,17.80
2017-09-13T15:33:07.290Z,17.70
2017-09-13T15:35:36.652Z,17.60
2017-09-13T15:38:05.898Z,17.60
2017-09-13T15:40:34.222Z,17.50
2017-09-13T15:43:02.814Z,17.50
2017-09-13T15:45:31.239Z,17.40
2017-09-13T15:47:59.950Z,17.30
2017-09-13T15:50:29.319Z,17.10
2017-09-13T15:52:57.976Z,17.10
2017-09-13T15:55:26.021Z,17.00
2017-09-13T15:57:54.423Z,16.90
2017-09-13T16:00:22.835Z,17.00
2017-09-13T16:02:50.512Z,17.00
2017-09-13T16:05:18.165Z,17.00
2017-09-13T16:07:45.770Z,17.00
2017-09-13T16:10:14.345Z,17.00
2017-09-13T16:12:42.790Z,16.90
2017-09-13T16:15:10.409Z,16.90
2017-09-13T16:17:38.235Z,16.90
2017-09-13T16:20:05.912Z,16.90
2017-09-13T16:22:34.336Z,17.10
2017-09-13T16:25:02.028Z,17.10
2017-09-13T16:27:29.715Z,17.20
2017-09-13T16:29:58.108Z,17.30
2017-09-13T16:32:25.915Z,17.30
2017-09-13T16:34:53.565Z,17.40
2017-09-13T16:37:21.180Z,17.50
2017-09-13T16:39:49.675Z,17.70
2017-09-13T16:42:17.362Z,17.70
2017-09-13T16:44:45.044Z,17.70
2017-09-13T16:47:12.944Z,17.70
2017-09-13T16:49:41.401Z,17.90
2017-09-13T16:52:09.170Z,17.90
2017-09-13T16:54:36.848Z,18.00
2017-09-13T16:57:05.288Z,18.00
2017-09-13T16:59:32.962Z,18.00
2017-09-13T17:02:00.685Z,18.10
2017-09-13T17:04:28.297Z,18.30
2017-09-13T17:06:56.763Z,18.30
2017-09-13T17:09:24.689Z,18.30
2017-09-13T17:11:52.384Z,18.20
2017-09-13T17:14:20.128Z,18.20
2017-09-13T17:16:47.916Z,18.10
2017-09-13T17:19:15.576Z,18.10
2017-09-13T17:21:43.249Z,18.10
2017-09-13T17:24:11.809Z,18.00
2017-09-13T17:26:39.508Z,18.00
2017-09-13T17:29:07.959Z,18.00
2017-09-13T17:31:35.656Z,17.90
2017-09-13T17:34:03.316Z,17.80
2017-09-13T17:36:30.970Z,17.60
2017-09-13T17:38:58.680Z,17.50
2017-09-13T17:41:26.329Z,17.40
2017-09-13T17:43:54.036Z,17.50
2017-09-13T17:46:22.670Z,17.50
2017-09-13T17:48:50.407Z,17.40
2017-09-13T17:51:18.052Z,17.50
2017-09-13T17:53:46.500Z,17.50
2017-09-13T17:56:14.260Z,17.50
2017-09-13T17:58:41.930Z,17.50
2017-09-13T18:01:09.631Z,17.50
2017-09-13T18:03:37.420Z,17.60
2017-09-13T18:06:05.128Z,17.70
2017-09-13T18:08:33.623Z,17.70
2017-09-13T18:11:01.277Z,17.70
2017-09-13T18:13:29.701Z,17.90
2017-09-13T18:15:57.524Z,17.90
2017-09-13T18:18:25.300Z,17.90
2017-09-13T18:20:53.004Z,17.90
2017-09-13T18:23:21.846Z,18.00
2017-09-13T18:25:49.636Z,17.90
2017-09-13T18:28:17.409Z,17.90
2017-09-13T18:30:46.212Z,17.90
2017-09-13T18:33:14.995Z,17.90
2017-09-13T18:35:42.900Z,17.90
2017-09-13T18:38:10.781Z,18.00
2017-09-13T18:40:38.652Z,18.00
2017-09-13T18:43:06.531Z,18.00
2017-09-13T18:45:34.476Z,18.00
2017-09-13T18:48:02.404Z,18.00
2017-09-13T18:50:30.365Z,17.90
2017-09-13T18:52:58.354Z,17.90
2017-09-13T18:55:26.256Z,18.00
2017-09-13T18:57:54.157Z,18.10
2017-09-13T19:00:22.932Z,18.20
2017-09-13T19:02:50.817Z,18.20
2017-09-13T19:05:18.614Z,18.30
2017-09-13T19:07:46.622Z,18.30
2017-09-13T19:10:14.520Z,18.40
2017-09-13T19:12:43.181Z,18.40
2017-09-13T19:15:11.865Z,18.50
2017-09-13T19:17:39.698Z,18.40
2017-09-13T19:20:07.520Z,18.50
2017-09-13T19:22:36.269Z,18.60
2017-09-13T19:25:04.111Z,18.60
2017-09-13T19:27:31.903Z,18.70
2017-09-13T19:29:59.712Z,18.70
2017-09-13T19:32:28.243Z,18.60
2017-09-13T19:34:56.043Z,18.60
2017-09-13T19:37:24.671Z,18.60
2017-09-13T19:39:52.371Z,18.60
2017-09-13T19:42:20.823Z,18.40
2017-09-13T19:44:48.551Z,18.40
2017-09-13T19:47:17.198Z,18.40
2017-09-13T19:49:45.000Z,18.40
2017-09-13T19:52:12.951Z,18.50
2017-09-13T19:54:41.582Z,18.60
2017-09-13T19:57:09.484Z,18.60
2017-09-13T19:59:37.498Z,18.60
2017-09-13T20:02:05.228Z,18.60
2017-09-13T20:04:33.635Z,18.60
2017-09-13T20:07:02.048Z,18.50
2017-09-13T20:09:29.705Z,18.40
2017-09-13T20:11:57.481Z,18.40
2017-09-13T20:14:25.386Z,18.40
2017-09-13T20:16:53.058Z,18.40
2017-09-13T20:19:20.725Z,18.40
2017-09-13T20:21:48.557Z,18.40
2017-09-13T20:24:16.308Z,18.40
2017-09-13T20:26:44.755Z,18.30
2017-09-13T20:29:12.504Z,18.20
2017-09-13T20:31:40.306Z,18.20
2017-09-13T20:34:07.991Z,18.20
2017-09-13T20:36:35.979Z,18.30
2017-09-13T20:39:03.896Z,18.40
2017-09-13T20:41:31.614Z,18.40
2017-09-13T20:43:59.580Z,18.40
2017-09-13T20:46:27.459Z,18.50
2017-09-13T20:48:55.385Z,18.50
2017-09-13T20:51:24.083Z,18.60
2017-09-13T20:53:51.919Z,18.60
2017-09-13T20:56:20.435Z,18.70
2017-09-13T20:58:48.371Z,18.70
2017-09-13T21:01:16.888Z,18.80
2017-09-13T21:03:44.683Z,18.80
2017-09-13T21:06:12.356Z,18.80
2017-09-13T21:08:40.046Z,18.90
2017-09-13T21:11:07.720Z,18.90
2017-09-13T21:13:35.416Z,18.90
2017-09-13T21:16:03.084Z,18.90
2017-09-13T21:18:30.771Z,18.80
2017-09-13T21:20:59.295Z,18.80
2017-09-13T21:23:27.013Z,18.80
2017-09-13T21:25:55.536Z,18.70
2017-09-13T21:28:24.724Z,18.70
2017-09-13T21:30:52.672Z,18.70
2017-09-13T21:33:20.348Z,18.80
2017-09-13T21:35:48.308Z,18.90
2017-09-13T21:38:16.121Z,18.90
2017-09-13T21:40:44.308Z,18.70
2017-09-13T21:43:12.084Z,18.70
2017-09-13T21:45:40.504Z,18.60
2017-09-13T21:48:08.524Z,18.60
2017-09-13T21:50:36.465Z,18.70
2017-09-13T21:53:04.451Z,18.70
2017-09-13T21:55:33.815Z,18.50
2017-09-13T21:58:02.655Z,18.50
2017-09-13T22:00:31.188Z,18.50
2017-09-13T22:02:58.952Z,18.50
2017-09-13T22:05:26.825Z,18.50
2017-09-13T22:07:54.773Z,18.60
2017-09-13T22:10:22.551Z,18.60
2017-09-13T22:12:51.288Z,18.50
2017-09-13T22:15:19.715Z,18.40
2017-09-13T22:17:47.404Z,18.50
2017-09-13T22:20:15.320Z,18.40
2017-09-13T22:22:43.078Z,18.30
2017-09-13T22:25:10.912Z,18.30
2017-09-13T22:27:39.460Z,18.30
2017-09-13T22:30:07.302Z,18.30
2017-09-13T22:32:35.012Z,18.40
2017-09-13T22:35:03.482Z,18.30
2017-09-13T22:37:31.331Z,18.30
2017-09-13T22:39:58.969Z,18.30
2017-09-13T22:42:26.656Z,18.20
2017-09-13T22:44:54.297Z,18.10
2017-09-13T22:47:21.957Z,18.10
2017-09-13T22:49:49.798Z,18.00
2017-09-13T22:52:17.416Z,17.90
2017-09-13T22:54:45.892Z,17.70
2017-09-13T22:57:14.361Z,17.60
2017-09-13T22:59:42.019Z,17.60
2017-09-13T23:02:09.652Z,17.50
2017-09-13T23:04:37.352Z,17.50
2017-09-13T23:07:05.749Z,17.50
2017-09-13T23:09:33.371Z,17.60
2017-09-13T23:12:01.060Z,17.70
2017-09-13T23:14:29.453Z,17.60
2017-09-13T23:16:57.098Z,17.60
2017-09-13T23:19:25.627Z,17.60
2017-09-13T23:21:53.290Z,17.60
2017-09-13T23:24:20.916Z,17.60
2017-09-13T23:26:48.595Z,17.60
2017-09-13T23:29:16.219Z,17.50
2017-09-13T23:31:44.595Z,17.50
2017-09-13T23:34:13.119Z,17.30
2017-09-13T23:36:40.732Z,17.30
2017-09-13T23:39:09.123Z,17.30
2017-09-13T23:41:36.792Z,17.20
2017-09-13T23:44:04.425Z,17.20
2017-09-13T23:46:32.796Z,17.10
2017-09-13T23:49:00.740Z,17.00
2017-09-13T23:51:28.547Z,17.00
2017-09-13T23:53:56.486Z,17.00
2017-09-13T23:56:24.422Z,16.90
2017-09-13T23:58:52.388Z,16.90
